sensor_id;sensor_type;location;lat;lon;timestamp;temperature;humidity
21167;DHT22;10741;52.272;9.580;2022-11-15T00:00:46;6.60;99.90
21167;DHT22;10741;52.272;9.580;2022-11-15T00:03:16;6.90;99.90
21167;DHT22;10741;52.272;9.580;2022-11-15T00:05:44;7.30;99.90
21167;DHT22;10741;52.272;9.580;2022-11-15T00:08:10;7.60;99.90
21167;DHT22;10741;52.272;9.580;2022-11-15T00:10:37;8.10;99.90
21167;DHT22;10741;52.272;9.580;2022-11-15T00:13:11;8.20;99.90
21167;DHT22;10741;52.272;9.580;2022-11-15T00:15:38;8.40;99.90
21167;DHT22;10741;52.272;9.580;2022-11-15T00:18:04;8.60;99.90
21167;DHT22;10741;52.272;9.580;2022-11-15T00:20:34;8.70;99.90
21167;DHT22;10741;52.272;9.580;2022-11-15T00:23:00;8.70;99.90
21167;DHT22;10741;52.272;9.580;2022-11-15T00:25:25;8.90;99.90
21167;DHT22;10741;52.272;9.580;2022-11-15T00:27:55;8.90;99.90
21167;DHT22;10741;52.272;9.580;2022-11-15T00:30:22;8.80;99.90
21167;DHT22;10741;52.272;9.580;2022-11-15T00:32:48;8.90;99.90
21167;DHT22;10741;52.272;9.580;2022-11-15T00:35:14;8.90;99.90
21167;DHT22;10741;52.272;9.580;2022-11-15T00:37:39;9.00;99.90
21167;DHT22;10741;52.272;9.580;2022-11-15T00:40:06;9.10;99.90
21167;DHT22;10741;52.272;9.580;2022-11-15T00:42:32;9.20;99.90
21167;DHT22;10741;52.272;9.580;2022-11-15T00:44:57;9.30;99.90
21167;DHT22;10741;52.272;9.580;2022-11-15T00:47:23;9.30;99.90
21167;DHT22;10741;52.272;9.580;2022-11-15T00:49:49;9.40;99.90
21167;DHT22;10741;52.272;9.580;2022-11-15T00:52:14;9.50;99.90
21167;DHT22;10741;52.272;9.580;2022-11-15T00:54:40;9.70;99.90
21167;DHT22;10741;52.272;9.580;2022-11-15T00:57:06;9.80;99.90
21167;DHT22;10741;52.272;9.580;2022-11-15T00:59:31;9.90;99.90
21167;DHT22;10741;52.272;9.580;2022-11-15T01:01:57;9.90;99.90
21167;DHT22;10741;52.272;9.580;2022-11-15T01:04:23;9.90;99.90
21167;DHT22;10741;52.272;9.580;2022-11-15T01:06:49;9.70;99.90
21167;DHT22;10741;52.272;9.580;2022-11-15T01:09:14;9.30;99.90
21167;DHT22;10741;52.272;9.580;2022-11-15T01:11:40;9.10;99.90
21167;DHT22;10741;52.272;9.580;2022-11-15T01:14:06;8.80;99.90
21167;DHT22;10741;52.272;9.580;2022-11-15T01:16:32;8.60;99.90
21167;DHT22;10741;52.272;9.580;2022-11-15T01:18:58;8.50;99.90
21167;DHT22;10741;52.272;9.580;2022-11-15T01:21:24;8.50;99.90
21167;DHT22;10741;52.272;9.580;2022-11-15T01:23:54;8.50;99.90
21167;DHT22;10741;52.272;9.580;2022-11-15T01:26:21;8.70;99.90
21167;DHT22;10741;52.272;9.580;2022-11-15T01:28:47;8.80;99.90
21167;DHT22;10741;52.272;9.580;2022-11-15T01:31:16;8.80;99.90
21167;DHT22;10741;52.272;9.580;2022-11-15T01:33:42;8.80;99.90
21167;DHT22;10741;52.272;9.580;2022-11-15T01:36:11;8.70;99.90
21167;DHT22;10741;52.272;9.580;2022-11-15T01:38:37;8.60;99.90
21167;DHT22;10741;52.272;9.580;2022-11-15T01:41:04;8.50;99.90
21167;DHT22;10741;52.272;9.580;2022-11-15T01:43:31;8.40;99.90
21167;DHT22;10741;52.272;9.580;2022-11-15T01:46:15;8.40;99.90
21167;DHT22;10741;52.272;9.580;2022-11-15T01:48:45;8.30;99.90
21167;DHT22;10741;52.272;9.580;2022-11-15T01:51:13;8.20;99.90
21167;DHT22;10741;52.272;9.580;2022-11-15T01:53:43;8.20;99.90
21167;DHT22;10741;52.272;9.580;2022-11-15T01:56:13;8.20;99.90
21167;DHT22;10741;52.272;9.580;2022-11-15T01:58:41;8.20;99.90
21167;DHT22;10741;52.272;9.580;2022-11-15T02:01:07;8.20;99.90
21167;DHT22;10741;52.272;9.580;2022-11-15T02:03:39;8.10;99.90
21167;DHT22;10741;52.272;9.580;2022-11-15T02:06:07;8.10;99.90
21167;DHT22;10741;52.272;9.580;2022-11-15T02:08:33;8.10;99.90
21167;DHT22;10741;52.272;9.580;2022-11-15T02:10:59;8.00;99.90
21167;DHT22;10741;52.272;9.580;2022-11-15T02:13:24;8.00;99.90
21167;DHT22;10741;52.272;9.580;2022-11-15T02:18:30;7.90;99.90
21167;DHT22;10741;52.272;9.580;2022-11-15T02:27:24;7.80;99.90
21167;DHT22;10741;52.272;9.580;2022-11-15T02:32:38;8.30;99.90
21167;DHT22;10741;52.272;9.580;2022-11-15T02:38:22;9.10;99.90
21167;DHT22;10741;52.272;9.580;2022-11-15T02:41:10;9.30;99.90
21167;DHT22;10741;52.272;9.580;2022-11-15T02:44:01;9.50;99.90
21167;DHT22;10741;52.272;9.580;2022-11-15T02:46:50;9.60;99.90
21167;DHT22;10741;52.272;9.580;2022-11-15T02:49:36;9.80;99.90
21167;DHT22;10741;52.272;9.580;2022-11-15T02:52:03;9.90;99.90
21167;DHT22;10741;52.272;9.580;2022-11-15T02:54:31;9.90;99.90
21167;DHT22;10741;52.272;9.580;2022-11-15T02:57:17;9.90;99.90
21167;DHT22;10741;52.272;9.580;2022-11-15T03:00:01;10.00;99.90
21167;DHT22;10741;52.272;9.580;2022-11-15T03:05:30;10.20;99.90
21167;DHT22;10741;52.272;9.580;2022-11-15T03:11:07;10.40;99.90
21167;DHT22;10741;52.272;9.580;2022-11-15T03:13:42;10.50;99.90
21167;DHT22;10741;52.272;9.580;2022-11-15T03:16:18;10.50;99.90
21167;DHT22;10741;52.272;9.580;2022-11-15T03:18:57;10.50;99.90
21167;DHT22;10741;52.272;9.580;2022-11-15T03:21:24;10.50;99.90
21167;DHT22;10741;52.272;9.580;2022-11-15T03:23:51;10.60;99.90
21167;DHT22;10741;52.272;9.580;2022-11-15T03:26:20;10.60;99.90
21167;DHT22;10741;52.272;9.580;2022-11-15T03:28:50;10.70;99.90
21167;DHT22;10741;52.272;9.580;2022-11-15T03:31:19;10.70;99.90
21167;DHT22;10741;52.272;9.580;2022-11-15T03:34:07;10.70;99.90
21167;DHT22;10741;52.272;9.580;2022-11-15T03:36:36;10.90;99.90
21167;DHT22;10741;52.272;9.580;2022-11-15T03:39:06;10.90;99.90
21167;DHT22;10741;52.272;9.580;2022-11-15T03:41:56;10.80;99.90
21167;DHT22;10741;52.272;9.580;2022-11-15T03:48:02;10.70;99.90
21167;DHT22;10741;52.272;9.580;2022-11-15T03:50:08;10.60;99.90
21167;DHT22;10741;52.272;9.580;2022-11-15T03:52:36;10.60;99.90
21167;DHT22;10741;52.272;9.580;2022-11-15T03:55:04;10.60;99.90
21167;DHT22;10741;52.272;9.580;2022-11-15T03:57:31;10.60;99.90
21167;DHT22;10741;52.272;9.580;2022-11-15T03:59:57;10.60;99.90
21167;DHT22;10741;52.272;9.580;2022-11-15T04:02:23;10.60;99.90
21167;DHT22;10741;52.272;9.580;2022-11-15T04:04:48;10.60;99.90
21167;DHT22;10741;52.272;9.580;2022-11-15T04:07:14;10.60;99.90
21167;DHT22;10741;52.272;9.580;2022-11-15T04:09:40;10.60;99.90
21167;DHT22;10741;52.272;9.580;2022-11-15T04:12:24;10.50;99.90
21167;DHT22;10741;52.272;9.580;2022-11-15T04:15:17;10.40;99.90
21167;DHT22;10741;52.272;9.580;2022-11-15T04:17:49;10.30;99.90
21167;DHT22;10741;52.272;9.580;2022-11-15T04:20:27;10.20;99.90
21167;DHT22;10741;52.272;9.580;2022-11-15T04:23:18;10.00;99.90
21167;DHT22;10741;52.272;9.580;2022-11-15T04:26:05;9.90;99.90
21167;DHT22;10741;52.272;9.580;2022-11-15T04:28:31;9.90;99.90
21167;DHT22;10741;52.272;9.580;2022-11-15T04:30:57;9.70;99.90
21167;DHT22;10741;52.272;9.580;2022-11-15T04:33:23;9.60;99.90
21167;DHT22;10741;52.272;9.580;2022-11-15T04:35:49;9.50;99.90
21167;DHT22;10741;52.272;9.580;2022-11-15T04:38:44;9.40;99.90
21167;DHT22;10741;52.272;9.580;2022-11-15T04:41:10;9.30;99.90
21167;DHT22;10741;52.272;9.580;2022-11-15T04:43:36;9.20;99.90
21167;DHT22;10741;52.272;9.580;2022-11-15T04:46:02;9.10;99.90
21167;DHT22;10741;52.272;9.580;2022-11-15T04:48:27;9.10;99.90
21167;DHT22;10741;52.272;9.580;2022-11-15T04:50:53;9.00;99.90
21167;DHT22;10741;52.272;9.580;2022-11-15T04:53:19;9.00;99.90
21167;DHT22;10741;52.272;9.580;2022-11-15T04:55:47;8.90;99.90
21167;DHT22;10741;52.272;9.580;2022-11-15T04:58:13;8.80;99.90
21167;DHT22;10741;52.272;9.580;2022-11-15T05:00:39;8.80;99.90
21167;DHT22;10741;52.272;9.580;2022-11-15T05:03:05;8.80;99.90
21167;DHT22;10741;52.272;9.580;2022-11-15T05:05:49;8.80;99.90
21167;DHT22;10741;52.272;9.580;2022-11-15T05:08:15;8.80;99.90
21167;DHT22;10741;52.272;9.580;2022-11-15T05:10:40;8.90;99.90
21167;DHT22;10741;52.272;9.580;2022-11-15T05:13:07;8.90;99.90
21167;DHT22;10741;52.272;9.580;2022-11-15T05:15:33;9.00;99.90
21167;DHT22;10741;52.272;9.580;2022-11-15T05:17:59;9.20;99.90
21167;DHT22;10741;52.272;9.580;2022-11-15T05:20:26;9.20;99.90
21167;DHT22;10741;52.272;9.580;2022-11-15T05:22:53;9.20;99.90
21167;DHT22;10741;52.272;9.580;2022-11-15T05:25:19;9.20;99.90
21167;DHT22;10741;52.272;9.580;2022-11-15T05:27:44;9.20;99.90
21167;DHT22;10741;52.272;9.580;2022-11-15T05:30:10;9.20;99.90
21167;DHT22;10741;52.272;9.580;2022-11-15T05:32:36;9.20;99.90
21167;DHT22;10741;52.272;9.580;2022-11-15T05:35:02;9.20;99.90
21167;DHT22;10741;52.272;9.580;2022-11-15T05:37:29;9.10;99.90
21167;DHT22;10741;52.272;9.580;2022-11-15T05:39:55;9.20;99.90
21167;DHT22;10741;52.272;9.580;2022-11-15T05:42:21;9.30;99.90
21167;DHT22;10741;52.272;9.580;2022-11-15T05:44:48;9.30;99.90
21167;DHT22;10741;52.272;9.580;2022-11-15T05:47:19;9.30;99.90
21167;DHT22;10741;52.272;9.580;2022-11-15T05:49:47;9.30;99.90
21167;DHT22;10741;52.272;9.580;2022-11-15T05:52:17;9.20;99.90
21167;DHT22;10741;52.272;9.580;2022-11-15T05:54:44;9.20;99.90
21167;DHT22;10741;52.272;9.580;2022-11-15T05:57:10;9.10;99.90
21167;DHT22;10741;52.272;9.580;2022-11-15T05:59:36;9.00;99.90
21167;DHT22;10741;52.272;9.580;2022-11-15T06:02:02;9.00;99.90
21167;DHT22;10741;52.272;9.580;2022-11-15T06:04:28;9.20;99.90
21167;DHT22;10741;52.272;9.580;2022-11-15T06:06:54;9.30;99.90
21167;DHT22;10741;52.272;9.580;2022-11-15T06:09:19;9.60;99.90
21167;DHT22;10741;52.272;9.580;2022-11-15T06:11:45;9.60;99.90
21167;DHT22;10741;52.272;9.580;2022-11-15T06:14:11;9.80;99.90
21167;DHT22;10741;52.272;9.580;2022-11-15T06:16:36;10.00;99.90
21167;DHT22;10741;52.272;9.580;2022-11-15T06:19:02;10.10;99.90
21167;DHT22;10741;52.272;9.580;2022-11-15T06:21:28;10.20;99.90
21167;DHT22;10741;52.272;9.580;2022-11-15T06:23:54;10.10;99.90
21167;DHT22;10741;52.272;9.580;2022-11-15T06:26:20;10.10;99.90
21167;DHT22;10741;52.272;9.580;2022-11-15T06:28:46;10.00;99.90
21167;DHT22;10741;52.272;9.580;2022-11-15T06:31:12;10.00;99.90
21167;DHT22;10741;52.272;9.580;2022-11-15T06:33:38;10.00;99.90
21167;DHT22;10741;52.272;9.580;2022-11-15T06:36:07;10.00;99.90
21167;DHT22;10741;52.272;9.580;2022-11-15T06:38:33;10.30;99.90
21167;DHT22;10741;52.272;9.580;2022-11-15T06:41:03;10.30;99.90
21167;DHT22;10741;52.272;9.580;2022-11-15T06:43:29;10.30;99.90
21167;DHT22;10741;52.272;9.580;2022-11-15T06:45:55;10.30;99.90
21167;DHT22;10741;52.272;9.580;2022-11-15T06:48:22;10.40;99.90
21167;DHT22;10741;52.272;9.580;2022-11-15T06:50:55;10.50;99.90
21167;DHT22;10741;52.272;9.580;2022-11-15T06:53:21;10.40;99.90
21167;DHT22;10741;52.272;9.580;2022-11-15T06:55:48;10.30;99.90
21167;DHT22;10741;52.272;9.580;2022-11-15T06:58:14;10.20;99.90
21167;DHT22;10741;52.272;9.580;2022-11-15T07:00:40;10.10;99.90
21167;DHT22;10741;52.272;9.580;2022-11-15T07:03:06;10.10;99.90
21167;DHT22;10741;52.272;9.580;2022-11-15T07:05:32;10.00;99.90
21167;DHT22;10741;52.272;9.580;2022-11-15T07:07:58;9.90;99.90
21167;DHT22;10741;52.272;9.580;2022-11-15T07:10:25;9.90;99.90
21167;DHT22;10741;52.272;9.580;2022-11-15T07:12:54;9.90;99.90
21167;DHT22;10741;52.272;9.580;2022-11-15T07:15:23;9.90;99.90
21167;DHT22;10741;52.272;9.580;2022-11-15T07:17:50;9.80;99.90
21167;DHT22;10741;52.272;9.580;2022-11-15T07:20:16;9.80;99.90
21167;DHT22;10741;52.272;9.580;2022-11-15T07:22:43;9.70;99.90
21167;DHT22;10741;52.272;9.580;2022-11-15T07:25:11;9.60;99.90
21167;DHT22;10741;52.272;9.580;2022-11-15T07:27:37;9.50;99.90
21167;DHT22;10741;52.272;9.580;2022-11-15T07:30:04;9.40;99.90
21167;DHT22;10741;52.272;9.580;2022-11-15T07:32:30;9.30;99.90
21167;DHT22;10741;52.272;9.580;2022-11-15T07:34:56;9.30;99.90
21167;DHT22;10741;52.272;9.580;2022-11-15T07:37:22;9.60;99.90
21167;DHT22;10741;52.272;9.580;2022-11-15T07:39:48;10.10;99.90
21167;DHT22;10741;52.272;9.580;2022-11-15T07:42:14;10.70;99.90
21167;DHT22;10741;52.272;9.580;2022-11-15T07:44:58;10.90;99.90
21167;DHT22;10741;52.272;9.580;2022-11-15T07:47:24;10.90;99.90
21167;DHT22;10741;52.272;9.580;2022-11-15T07:49:50;10.90;99.90
21167;DHT22;10741;52.272;9.580;2022-11-15T07:52:15;10.80;99.90
21167;DHT22;10741;52.272;9.580;2022-11-15T07:54:41;10.80;99.90
21167;DHT22;10741;52.272;9.580;2022-11-15T07:57:07;11.20;99.90
21167;DHT22;10741;52.272;9.580;2022-11-15T07:59:34;11.60;99.90
21167;DHT22;10741;52.272;9.580;2022-11-15T08:02:01;12.50;99.90
21167;DHT22;10741;52.272;9.580;2022-11-15T08:04:27;13.30;99.90
21167;DHT22;10741;52.272;9.580;2022-11-15T08:06:52;14.20;99.90
21167;DHT22;10741;52.272;9.580;2022-11-15T08:09:18;15.10;99.90
21167;DHT22;10741;52.272;9.580;2022-11-15T08:11:44;15.70;99.90
21167;DHT22;10741;52.272;9.580;2022-11-15T08:14:09;16.00;99.90
21167;DHT22;10741;52.272;9.580;2022-11-15T08:16:35;16.30;99.90
21167;DHT22;10741;52.272;9.580;2022-11-15T08:19:01;16.60;99.90
21167;DHT22;10741;52.272;9.580;2022-11-15T08:21:27;17.10;99.90
21167;DHT22;10741;52.272;9.580;2022-11-15T08:23:52;17.50;99.90
21167;DHT22;10741;52.272;9.580;2022-11-15T08:26:19;17.40;99.90
21167;DHT22;10741;52.272;9.580;2022-11-15T08:28:45;17.20;99.90
21167;DHT22;10741;52.272;9.580;2022-11-15T08:31:16;17.30;99.90
21167;DHT22;10741;52.272;9.580;2022-11-15T08:33:43;17.60;99.90
21167;DHT22;10741;52.272;9.580;2022-11-15T08:36:13;18.10;99.90
21167;DHT22;10741;52.272;9.580;2022-11-15T08:38:40;17.90;99.90
21167;DHT22;10741;52.272;9.580;2022-11-15T08:41:05;17.80;99.90
21167;DHT22;10741;52.272;9.580;2022-11-15T08:43:32;17.90;99.90
21167;DHT22;10741;52.272;9.580;2022-11-15T08:45:58;18.40;99.90
21167;DHT22;10741;52.272;9.580;2022-11-15T08:48:24;18.40;99.90
21167;DHT22;10741;52.272;9.580;2022-11-15T08:50:54;18.10;99.90
21167;DHT22;10741;52.272;9.580;2022-11-15T08:53:20;18.60;99.90
21167;DHT22;10741;52.272;9.580;2022-11-15T08:55:46;18.40;99.90
21167;DHT22;10741;52.272;9.580;2022-11-15T08:58:12;19.00;99.90
21167;DHT22;10741;52.272;9.580;2022-11-15T09:00:38;19.10;99.90
21167;DHT22;10741;52.272;9.580;2022-11-15T09:03:05;19.50;99.90
21167;DHT22;10741;52.272;9.580;2022-11-15T09:05:31;19.40;99.90
21167;DHT22;10741;52.272;9.580;2022-11-15T09:07:57;19.20;99.90
21167;DHT22;10741;52.272;9.580;2022-11-15T09:10:23;19.40;99.90
21167;DHT22;10741;52.272;9.580;2022-11-15T09:12:50;19.50;99.90
21167;DHT22;10741;52.272;9.580;2022-11-15T09:15:16;19.60;99.90
21167;DHT22;10741;52.272;9.580;2022-11-15T09:17:42;19.70;99.90
21167;DHT22;10741;52.272;9.580;2022-11-15T09:20:09;19.50;99.90
21167;DHT22;10741;52.272;9.580;2022-11-15T09:22:34;18.80;99.90
21167;DHT22;10741;52.272;9.580;2022-11-15T09:25:02;18.70;99.90
21167;DHT22;10741;52.272;9.580;2022-11-15T09:27:31;18.30;99.90
21167;DHT22;10741;52.272;9.580;2022-11-15T09:29:57;17.90;99.90
21167;DHT22;10741;52.272;9.580;2022-11-15T09:32:23;17.50;99.90
21167;DHT22;10741;52.272;9.580;2022-11-15T09:34:49;17.30;99.90
21167;DHT22;10741;52.272;9.580;2022-11-15T09:37:16;17.00;99.90
21167;DHT22;10741;52.272;9.580;2022-11-15T09:39:41;17.00;99.90
21167;DHT22;10741;52.272;9.580;2022-11-15T09:50:18;17.20;99.90
21167;DHT22;10741;52.272;9.580;2022-11-15T09:52:46;17.00;99.90
21167;DHT22;10741;52.272;9.580;2022-11-15T09:55:13;16.50;99.90
21167;DHT22;10741;52.272;9.580;2022-11-15T10:00:35;15.90;99.90
21167;DHT22;10741;52.272;9.580;2022-11-15T10:03:15;15.70;99.90
21167;DHT22;10741;52.272;9.580;2022-11-15T10:05:44;15.60;99.90
21167;DHT22;10741;52.272;9.580;2022-11-15T10:10:59;15.70;99.90
21167;DHT22;10741;52.272;9.580;2022-11-15T10:13:28;15.70;99.90
21167;DHT22;10741;52.272;9.580;2022-11-15T10:21:17;16.00;99.90
21167;DHT22;10741;52.272;9.580;2022-11-15T10:23:44;16.10;99.90
21167;DHT22;10741;52.272;9.580;2022-11-15T10:26:13;16.00;99.90
21167;DHT22;10741;52.272;9.580;2022-11-15T10:28:40;16.20;99.90
21167;DHT22;10741;52.272;9.580;2022-11-15T10:31:25;16.20;99.90
21167;DHT22;10741;52.272;9.580;2022-11-15T10:33:56;16.20;99.90
21167;DHT22;10741;52.272;9.580;2022-11-15T10:36:24;16.10;99.90
21167;DHT22;10741;52.272;9.580;2022-11-15T10:38:52;16.20;99.90
21167;DHT22;10741;52.272;9.580;2022-11-15T10:41:31;16.30;99.90
21167;DHT22;10741;52.272;9.580;2022-11-15T10:46:32;16.10;99.90
21167;DHT22;10741;52.272;9.580;2022-11-15T10:49:29;16.00;99.90
21167;DHT22;10741;52.272;9.580;2022-11-15T10:52:30;16.00;99.90
21167;DHT22;10741;52.272;9.580;2022-11-15T10:57:30;15.40;99.90
21167;DHT22;10741;52.272;9.580;2022-11-15T11:00:05;15.20;99.90
21167;DHT22;10741;52.272;9.580;2022-11-15T11:02:32;15.00;99.90
21167;DHT22;10741;52.272;9.580;2022-11-15T11:05:00;15.10;99.90
21167;DHT22;10741;52.272;9.580;2022-11-15T11:07:29;15.20;99.90
21167;DHT22;10741;52.272;9.580;2022-11-15T11:12:33;15.70;99.90
21167;DHT22;10741;52.272;9.580;2022-11-15T11:15:10;15.80;99.90
21167;DHT22;10741;52.272;9.580;2022-11-15T11:23:25;16.00;99.90
21167;DHT22;10741;52.272;9.580;2022-11-15T11:29:13;16.00;99.90
21167;DHT22;10741;52.272;9.580;2022-11-15T11:32:02;16.10;99.90
21167;DHT22;10741;52.272;9.580;2022-11-15T11:37:51;16.20;99.90
21167;DHT22;10741;52.272;9.580;2022-11-15T11:40:34;16.30;99.90
21167;DHT22;10741;52.272;9.580;2022-11-15T11:48:42;16.40;99.90
21167;DHT22;10741;52.272;9.580;2022-11-15T11:51:17;16.40;99.90
21167;DHT22;10741;52.272;9.580;2022-11-15T11:54:34;16.40;99.90
21167;DHT22;10741;52.272;9.580;2022-11-15T11:56:37;16.40;99.90
21167;DHT22;10741;52.272;9.580;2022-11-15T11:59:23;16.20;99.90
21167;DHT22;10741;52.272;9.580;2022-11-15T12:01:51;16.20;99.90
21167;DHT22;10741;52.272;9.580;2022-11-15T12:07:17;16.30;99.90
21167;DHT22;10741;52.272;9.580;2022-11-15T12:17:37;15.20;99.90
21167;DHT22;10741;52.272;9.580;2022-11-15T12:20:18;15.00;99.90
21167;DHT22;10741;52.272;9.580;2022-11-15T12:25:32;14.90;99.90
21167;DHT22;10741;52.272;9.580;2022-11-15T12:28:33;14.90;99.90
21167;DHT22;10741;52.272;9.580;2022-11-15T12:31:02;14.90;99.90
21167;DHT22;10741;52.272;9.580;2022-11-15T12:33:33;14.80;99.90
21167;DHT22;10741;52.272;9.580;2022-11-15T12:36:05;14.80;99.90
21167;DHT22;10741;52.272;9.580;2022-11-15T12:38:56;14.80;99.90
21167;DHT22;10741;52.272;9.580;2022-11-15T12:47:30;15.10;99.90
21167;DHT22;10741;52.272;9.580;2022-11-15T12:49:56;15.00;99.90
21167;DHT22;10741;52.272;9.580;2022-11-15T12:52:22;14.90;99.90
21167;DHT22;10741;52.272;9.580;2022-11-15T12:54:54;14.80;99.90
21167;DHT22;10741;52.272;9.580;2022-11-15T13:00:02;14.80;99.90
21167;DHT22;10741;52.272;9.580;2022-11-15T13:02:37;14.70;99.90
21167;DHT22;10741;52.272;9.580;2022-11-15T13:12:56;14.70;99.90
21167;DHT22;10741;52.272;9.580;2022-11-15T13:18:33;14.60;99.90
21167;DHT22;10741;52.272;9.580;2022-11-15T13:21:00;14.50;99.90
21167;DHT22;10741;52.272;9.580;2022-11-15T13:23:26;14.40;99.90
21167;DHT22;10741;52.272;9.580;2022-11-15T13:25:54;14.30;99.90
21167;DHT22;10741;52.272;9.580;2022-11-15T13:31:40;14.30;99.90
21167;DHT22;10741;52.272;9.580;2022-11-15T13:36:42;14.40;99.90
21167;DHT22;10741;52.272;9.580;2022-11-15T13:39:40;14.40;99.90
21167;DHT22;10741;52.272;9.580;2022-11-15T13:42:15;14.80;99.90
21167;DHT22;10741;52.272;9.580;2022-11-15T13:44:58;15.40;99.90
21167;DHT22;10741;52.272;9.580;2022-11-15T13:47:26;15.90;99.90
21167;DHT22;10741;52.272;9.580;2022-11-15T13:49:53;16.40;99.90
21167;DHT22;10741;52.272;9.580;2022-11-15T13:52:19;16.90;99.90
21167;DHT22;10741;52.272;9.580;2022-11-15T13:57:57;16.70;99.90
21167;DHT22;10741;52.272;9.580;2022-11-15T14:00:42;16.10;99.90
21167;DHT22;10741;52.272;9.580;2022-11-15T14:03:19;15.60;99.90
21167;DHT22;10741;52.272;9.580;2022-11-15T14:08:33;14.80;99.90
21167;DHT22;10741;52.272;9.580;2022-11-15T14:11:29;14.40;99.90
21167;DHT22;10741;52.272;9.580;2022-11-15T14:16:45;13.90;99.90
21167;DHT22;10741;52.272;9.580;2022-11-15T14:19:33;13.70;99.90
21167;DHT22;10741;52.272;9.580;2022-11-15T14:27:33;13.40;99.90
21167;DHT22;10741;52.272;9.580;2022-11-15T14:29:59;13.30;99.90
21167;DHT22;10741;52.272;9.580;2022-11-15T14:32:36;13.20;99.90
21167;DHT22;10741;52.272;9.580;2022-11-15T14:35:03;13.10;99.90
21167;DHT22;10741;52.272;9.580;2022-11-15T14:37:33;13.00;99.90
21167;DHT22;10741;52.272;9.580;2022-11-15T14:40:04;13.00;99.90
21167;DHT22;10741;52.272;9.580;2022-11-15T14:42:31;12.90;99.90
21167;DHT22;10741;52.272;9.580;2022-11-15T14:44:57;12.80;99.90
21167;DHT22;10741;52.272;9.580;2022-11-15T14:47:23;12.80;99.90
21167;DHT22;10741;52.272;9.580;2022-11-15T14:49:48;12.70;99.90
21167;DHT22;10741;52.272;9.580;2022-11-15T14:52:28;12.70;99.90
21167;DHT22;10741;52.272;9.580;2022-11-15T14:54:55;12.60;99.90
21167;DHT22;10741;52.272;9.580;2022-11-15T14:57:21;12.50;99.90
21167;DHT22;10741;52.272;9.580;2022-11-15T14:59:47;12.60;99.90
21167;DHT22;10741;52.272;9.580;2022-11-15T15:02:22;12.50;99.90
21167;DHT22;10741;52.272;9.580;2022-11-15T15:04:48;12.50;99.90
21167;DHT22;10741;52.272;9.580;2022-11-15T15:07:14;12.60;99.90
21167;DHT22;10741;52.272;9.580;2022-11-15T15:09:40;12.60;99.90
21167;DHT22;10741;52.272;9.580;2022-11-15T15:12:17;12.50;99.90
21167;DHT22;10741;52.272;9.580;2022-11-15T15:14:44;12.50;99.90
21167;DHT22;10741;52.272;9.580;2022-11-15T15:17:10;12.60;99.90
21167;DHT22;10741;52.272;9.580;2022-11-15T15:19:36;12.60;99.90
21167;DHT22;10741;52.272;9.580;2022-11-15T15:22:01;12.60;99.90
21167;DHT22;10741;52.272;9.580;2022-11-15T15:24:27;12.50;99.90
21167;DHT22;10741;52.272;9.580;2022-11-15T15:26:53;12.50;99.90
21167;DHT22;10741;52.272;9.580;2022-11-15T15:29:19;12.50;99.90
21167;DHT22;10741;52.272;9.580;2022-11-15T15:31:44;12.50;99.90
21167;DHT22;10741;52.272;9.580;2022-11-15T15:34:10;12.50;99.90
21167;DHT22;10741;52.272;9.580;2022-11-15T15:36:36;12.50;99.90
21167;DHT22;10741;52.272;9.580;2022-11-15T15:39:01;12.40;99.90
21167;DHT22;10741;52.272;9.580;2022-11-15T15:41:27;12.40;99.90
21167;DHT22;10741;52.272;9.580;2022-11-15T15:43:53;12.40;99.90
21167;DHT22;10741;52.272;9.580;2022-11-15T15:46:20;12.40;99.90
21167;DHT22;10741;52.272;9.580;2022-11-15T15:48:46;12.40;99.90
21167;DHT22;10741;52.272;9.580;2022-11-15T15:51:12;12.30;99.90
21167;DHT22;10741;52.272;9.580;2022-11-15T15:53:38;12.30;99.90
21167;DHT22;10741;52.272;9.580;2022-11-15T15:56:04;12.30;99.90
21167;DHT22;10741;52.272;9.580;2022-11-15T15:58:30;12.20;99.90
21167;DHT22;10741;52.272;9.580;2022-11-15T16:00:57;12.20;99.90
21167;DHT22;10741;52.272;9.580;2022-11-15T16:03:23;12.10;99.90
21167;DHT22;10741;52.272;9.580;2022-11-15T16:05:50;12.00;99.90
21167;DHT22;10741;52.272;9.580;2022-11-15T16:08:21;12.00;99.90
21167;DHT22;10741;52.272;9.580;2022-11-15T16:10:47;11.90;99.90
21167;DHT22;10741;52.272;9.580;2022-11-15T16:13:13;11.80;99.90
21167;DHT22;10741;52.272;9.580;2022-11-15T16:15:39;11.70;99.90
21167;DHT22;10741;52.272;9.580;2022-11-15T16:18:05;11.70;99.90
21167;DHT22;10741;52.272;9.580;2022-11-15T16:23:07;11.70;99.90
21167;DHT22;10741;52.272;9.580;2022-11-15T16:25:50;11.70;99.90
21167;DHT22;10741;52.272;9.580;2022-11-15T16:28:25;11.60;99.90
21167;DHT22;10741;52.272;9.580;2022-11-15T16:31:00;11.60;99.90
21167;DHT22;10741;52.272;9.580;2022-11-15T16:33:26;11.60;99.90
21167;DHT22;10741;52.272;9.580;2022-11-15T16:35:52;11.50;99.90
21167;DHT22;10741;52.272;9.580;2022-11-15T16:38:18;11.50;99.90
21167;DHT22;10741;52.272;9.580;2022-11-15T16:40:44;11.50;99.90
21167;DHT22;10741;52.272;9.580;2022-11-15T16:43:10;11.50;99.90
21167;DHT22;10741;52.272;9.580;2022-11-15T16:45:36;11.50;99.90
21167;DHT22;10741;52.272;9.580;2022-11-15T16:48:01;11.50;99.90
21167;DHT22;10741;52.272;9.580;2022-11-15T16:50:32;11.40;99.90
21167;DHT22;10741;52.272;9.580;2022-11-15T16:53:04;11.40;99.90
21167;DHT22;10741;52.272;9.580;2022-11-15T16:55:30;11.40;99.90
21167;DHT22;10741;52.272;9.580;2022-11-15T16:57:56;11.30;99.90
21167;DHT22;10741;52.272;9.580;2022-11-15T17:00:23;11.30;99.90
21167;DHT22;10741;52.272;9.580;2022-11-15T17:02:50;11.30;99.90
21167;DHT22;10741;52.272;9.580;2022-11-15T17:05:18;11.20;99.90
21167;DHT22;10741;52.272;9.580;2022-11-15T17:07:46;11.20;99.90
21167;DHT22;10741;52.272;9.580;2022-11-15T17:10:13;11.20;99.90
21167;DHT22;10741;52.272;9.580;2022-11-15T17:12:39;11.10;99.90
21167;DHT22;10741;52.272;9.580;2022-11-15T17:15:05;11.10;99.90
21167;DHT22;10741;52.272;9.580;2022-11-15T17:17:31;11.10;99.90
21167;DHT22;10741;52.272;9.580;2022-11-15T17:19:57;11.10;99.90
21167;DHT22;10741;52.272;9.580;2022-11-15T17:22:23;11.00;99.90
21167;DHT22;10741;52.272;9.580;2022-11-15T17:24:49;10.90;99.90
21167;DHT22;10741;52.272;9.580;2022-11-15T17:27:15;10.90;99.90
21167;DHT22;10741;52.272;9.580;2022-11-15T17:29:41;10.80;99.90
21167;DHT22;10741;52.272;9.580;2022-11-15T17:32:08;10.70;99.90
21167;DHT22;10741;52.272;9.580;2022-11-15T17:34:33;10.60;99.90
21167;DHT22;10741;52.272;9.580;2022-11-15T17:36:59;10.50;99.90
21167;DHT22;10741;52.272;9.580;2022-11-15T17:39:25;10.50;99.90
21167;DHT22;10741;52.272;9.580;2022-11-15T17:41:51;10.50;99.90
21167;DHT22;10741;52.272;9.580;2022-11-15T17:44:17;10.50;99.90
21167;DHT22;10741;52.272;9.580;2022-11-15T17:46:43;10.60;99.90
21167;DHT22;10741;52.272;9.580;2022-11-15T17:49:09;10.60;99.90
21167;DHT22;10741;52.272;9.580;2022-11-15T17:51:34;10.60;99.90